Time;durP1;ratioP1;P1;durP2;ratioP2;P2;SDS_P1;SDS_P2;PMS_P1;PMS_P2;Temp;Humidity;BMP_temperature;BMP_pressure;BME280_temperature;BME280_humidity;BME280_pressure;Samples;Min_cycle;Max_cycle;Signal;HPM_P1;HPM_P2
2022/02/19 00:00:24;;;;;;;;;;;;;;;21.79;44.61;98857.50;4863053;29;5331;-62
2022/02/19 00:02:50;;;;;;;;;;;;;;;21.79;44.34;98840.22;4864649;29;4281;-62
2022/02/19 00:05:17;;;;;;;;;;;;;;;21.78;44.51;98839.47;4862946;29;4259;-62
2022/02/19 00:07:44;;;;;;;;;;;;;;;21.79;44.55;98866.16;4861862;29;4115;-62
2022/02/19 00:10:11;;;;;;;;;;;;;;;21.79;44.63;98869.03;4864920;29;4335;-62
2022/02/19 00:12:37;;;;;;;;;;;;;;;21.79;44.52;98857.50;4863404;29;4190;-62
2022/02/19 00:15:04;;;;;;;;;;;;;;;21.78;44.28;98862.53;4861913;29;4381;-62
2022/02/19 00:17:30;;;;;;;;;;;;;;;21.78;44.33;98893.50;4867143;29;4272;-62
2022/02/19 00:19:56;;;;;;;;;;;;;;;21.77;44.57;98877.66;4869868;29;4272;-61
2022/02/19 00:22:23;;;;;;;;;;;;;;;21.76;44.47;98882.66;4868397;29;4281;-62
2022/02/19 00:24:49;;;;;;;;;;;;;;;21.75;44.45;98864.66;4867792;29;4295;-62
2022/02/19 00:27:16;;;;;;;;;;;;;;;21.74;44.49;98854.59;4866135;29;4235;-62
2022/02/19 00:29:43;;;;;;;;;;;;;;;21.74;44.51;98883.38;4882495;29;4251;-62
2022/02/19 00:32:09;;;;;;;;;;;;;;;21.74;44.38;98871.88;4869876;29;4197;-62
2022/02/19 00:34:36;;;;;;;;;;;;;;;21.74;44.43;98871.88;4883122;29;4211;-62
2022/02/19 00:37:02;;;;;;;;;;;;;;;21.74;44.50;98892.03;4864494;29;4241;-62
2022/02/19 00:39:29;;;;;;;;;;;;;;;21.75;44.44;98887.00;4866786;29;5307;-62
2022/02/19 00:41:56;;;;;;;;;;;;;;;21.74;44.46;98892.03;4867509;29;4315;-61
2022/02/19 00:44:22;;;;;;;;;;;;;;;21.75;44.20;98928.03;4868891;29;4391;-61
2022/02/19 00:46:48;;;;;;;;;;;;;;;21.74;44.34;98889.16;4866094;29;4178;-62
2022/02/19 00:49:15;;;;;;;;;;;;;;;21.73;44.38;98887.69;4867818;29;5319;-62
2022/02/19 00:51:41;;;;;;;;;;;;;;;21.74;44.26;98908.59;4876482;29;4287;-62
2022/02/19 00:54:08;;;;;;;;;;;;;;;21.72;44.50;98889.13;4881471;29;4161;-62
2022/02/19 00:56:34;;;;;;;;;;;;;;;21.73;44.46;98902.09;4867167;29;4320;-62
2022/02/19 00:59:01;;;;;;;;;;;;;;;21.72;44.42;98894.91;4885097;29;4296;-62
2022/02/19 01:01:27;;;;;;;;;;;;;;;21.71;44.43;98893.44;4882930;29;4517;-62
2022/02/19 01:04:04;;;;;;;;;;;;;;;21.72;44.42;98905.69;4872519;29;4369;-62
2022/02/19 01:06:32;;;;;;;;;;;;;;;21.71;44.27;98919.34;4870599;29;4278;-62
2022/02/19 01:08:58;;;;;;;;;;;;;;;21.71;44.38;98902.06;4870017;29;4256;-62
2022/02/19 01:11:24;;;;;;;;;;;;;;;21.71;44.27;98907.09;4869035;29;4422;-62
2022/02/19 01:13:51;;;;;;;;;;;;;;;21.70;44.16;98897.75;4866058;29;4428;-62
2022/02/19 01:16:17;;;;;;;;;;;;;;;21.69;44.33;98902.06;4874945;29;4476;-62
2022/02/19 01:18:45;;;;;;;;;;;;;;;21.70;44.35;98905.69;4884621;29;4182;-62
2022/02/19 01:21:14;;;;;;;;;;;;;;;21.71;44.25;98910.72;4869725;29;4179;-62
2022/02/19 01:23:40;;;;;;;;;;;;;;;21.70;44.23;98903.50;4883590;29;4209;-62
2022/02/19 01:26:07;;;;;;;;;;;;;;;21.70;43.97;98892.00;4886607;29;4143;-62
2022/02/19 01:28:34;;;;;;;;;;;;;;;21.69;44.25;98907.84;4875485;29;4397;-62
2022/02/19 01:31:02;;;;;;;;;;;;;;;21.68;44.15;98906.38;4870919;29;5396;-62
2022/02/19 01:33:28;;;;;;;;;;;;;;;21.68;44.26;98923.66;4885445;29;4323;-61
2022/02/19 01:35:54;;;;;;;;;;;;;;;21.69;44.26;98912.84;4873792;29;4303;-61
2022/02/19 01:38:24;;;;;;;;;;;;;;;21.67;44.12;98922.22;4863654;29;4256;-62
2022/02/19 01:40:51;;;;;;;;;;;;;;;21.66;44.09;98909.22;4868943;29;4265;-61
2022/02/19 01:43:18;;;;;;;;;;;;;;;21.66;44.32;98903.47;4882629;29;4239;-63
2022/02/19 01:45:44;;;;;;;;;;;;;;;21.66;44.07;98915.00;4884504;29;5512;-62
2022/02/19 01:48:11;;;;;;;;;;;;;;;21.67;43.94;98913.56;4886662;29;4249;-62
2022/02/19 01:50:40;;;;;;;;;;;;;;;21.67;43.99;98924.34;4867980;29;5235;-61
2022/02/19 01:53:07;;;;;;;;;;;;;;;21.67;44.04;98904.94;4870016;29;4280;-61
2022/02/19 01:55:40;;;;;;;;;;;;;;;21.66;44.08;98903.47;4886187;29;4444;-61
2022/02/19 01:58:19;;;;;;;;;;;;;;;21.67;43.98;98909.94;4885345;29;4302;-62
2022/02/19 02:00:56;;;;;;;;;;;;;;;21.67;44.04;98922.22;4880853;29;4423;-62
2022/02/19 02:03:42;;;;;;;;;;;;;;;21.66;44.11;98909.22;4869547;29;4249;-61
2022/02/19 02:06:21;;;;;;;;;;;;;;;21.66;43.84;98920.75;4883614;29;4294;-62
2022/02/19 02:08:48;;;;;;;;;;;;;;;21.66;43.92;98908.50;4877339;29;5426;-61
2022/02/19 02:11:14;;;;;;;;;;;;;;;21.65;43.99;98916.44;4864791;29;5407;-62
2022/02/19 02:14:01;;;;;;;;;;;;;;;21.63;44.06;98933.69;4871667;29;4288;-62
2022/02/19 02:16:56;;;;;;;;;;;;;;;21.63;44.03;98902.00;4871505;29;4222;-62
2022/02/19 02:19:24;;;;;;;;;;;;;;;21.63;43.97;98907.75;4880157;29;4241;-62
2022/02/19 02:22:02;;;;;;;;;;;;;;;21.63;43.92;98916.41;4886423;29;4277;-61
2022/02/19 02:24:29;;;;;;;;;;;;;;;21.63;43.96;98907.03;4866235;29;4206;-62
2022/02/19 02:26:55;;;;;;;;;;;;;;;21.63;43.70;98892.66;4885412;29;4304;-62
2022/02/19 02:29:22;;;;;;;;;;;;;;;21.63;43.74;98876.09;4879514;29;4398;-62
2022/02/19 02:31:49;;;;;;;;;;;;;;;21.63;43.69;98893.38;4880710;29;4284;-62
2022/02/19 02:34:15;;;;;;;;;;;;;;;21.63;43.71;98904.16;4883641;29;5309;-62
2022/02/19 02:36:42;;;;;;;;;;;;;;;21.62;43.83;98903.41;4883492;29;4278;-62
2022/02/19 02:39:08;;;;;;;;;;;;;;;21.62;43.77;98885.41;4874792;29;5585;-62
2022/02/19 02:41:37;;;;;;;;;;;;;;;21.63;43.77;98922.16;4880898;29;4395;-62
2022/02/19 02:44:07;;;;;;;;;;;;;;;21.62;43.84;98909.19;4882004;29;4341;-62
2022/02/19 02:46:33;;;;;;;;;;;;;;;21.62;43.63;98917.09;4870113;29;4044;-62
2022/02/19 02:49:04;;;;;;;;;;;;;;;21.61;43.71;98930.78;4882128;29;4288;-61
2022/02/19 02:51:32;;;;;;;;;;;;;;;21.62;43.81;98925.75;4871561;29;4115;-62
2022/02/19 02:53:58;;;;;;;;;;;;;;;21.61;43.62;98913.50;4869118;29;4312;-62
2022/02/19 02:56:28;;;;;;;;;;;;;;;21.60;43.59;98917.81;4878006;29;4251;-61
2022/02/19 02:58:54;;;;;;;;;;;;;;;21.60;43.65;98874.63;4886121;29;4283;-61
2022/02/19 03:01:20;;;;;;;;;;;;;;;21.61;43.71;98913.50;4868925;29;4243;-62
2022/02/19 03:03:47;;;;;;;;;;;;;;;21.61;43.45;98919.25;4881313;29;4243;-62
2022/02/19 03:06:13;;;;;;;;;;;;;;;21.61;43.40;98922.13;4880095;29;4359;-62
2022/02/19 03:08:44;;;;;;;;;;;;;;;21.60;43.51;98917.81;4864719;29;4204;-62
2022/02/19 03:11:12;;;;;;;;;;;;;;;21.60;43.39;98940.13;4883030;29;4285;-61
2022/02/19 03:13:40;;;;;;;;;;;;;;;21.60;43.37;98925.72;4881211;29;5305;-61
2022/02/19 03:16:07;;;;;;;;;;;;;;;21.59;43.59;98939.41;4883559;29;5184;-62
2022/02/19 03:18:36;;;;;;;;;;;;;;;21.59;43.57;98944.44;4883595;29;4209;-61
2022/02/19 03:21:02;;;;;;;;;;;;;;;21.59;43.36;98968.19;4876797;29;4268;-61
2022/02/19 03:23:30;;;;;;;;;;;;;;;21.59;43.52;98962.44;4880162;29;4229;-62
2022/02/19 03:25:56;;;;;;;;;;;;;;;21.58;43.28;98946.59;4880159;29;4407;-62
2022/02/19 03:28:23;;;;;;;;;;;;;;;21.58;43.40;98966.75;4874024;29;5363;-62
2022/02/19 03:30:55;;;;;;;;;;;;;;;21.57;43.36;98965.28;4882180;29;4418;-62
2022/02/19 03:33:44;;;;;;;;;;;;;;;21.58;43.25;98994.81;4881780;29;4291;-61
2022/02/19 03:36:13;;;;;;;;;;;;;;;21.58;43.40;98994.81;4885947;29;4458;-65
2022/02/19 03:38:40;;;;;;;;;;;;;;;21.58;43.21;99004.19;4884940;29;4328;-62
2022/02/19 03:41:12;;;;;;;;;;;;;;;21.57;43.21;98994.09;4881723;29;4289;-62
2022/02/19 03:43:38;;;;;;;;;;;;;;;21.56;43.21;99006.31;4869384;29;4419;-62
2022/02/19 03:46:05;;;;;;;;;;;;;;;21.56;43.33;99021.44;4866006;29;5251;-61
2022/02/19 03:48:58;;;;;;;;;;;;;;;21.61;43.29;98999.91;4868400;29;4209;-62
2022/02/19 03:51:24;;;;;;;;;;;;;;;21.73;42.81;99028.84;4860548;29;5314;-62
2022/02/19 03:53:52;;;;;;;;;;;;;;;21.73;42.76;99046.13;4883014;29;4554;-62
2022/02/19 03:56:22;;;;;;;;;;;;;;;21.76;42.90;99032.47;4877290;29;4304;-62
2022/02/19 03:58:54;;;;;;;;;;;;;;;21.77;42.84;99044.72;4884707;29;4285;-62
2022/02/19 04:01:21;;;;;;;;;;;;;;;21.70;42.75;99041.78;4881819;29;5431;-62
2022/02/19 04:03:50;;;;;;;;;;;;;;;21.61;42.99;99069.03;4882697;29;4267;-62
2022/02/19 04:06:16;;;;;;;;;;;;;;;21.59;43.07;99071.16;4880126;29;4324;-62
2022/02/19 04:08:43;;;;;;;;;;;;;;;21.72;42.77;99093.66;4879894;29;4277;-62
2022/02/19 04:11:09;;;;;;;;;;;;;;;21.79;42.87;99087.97;4868162;29;5499;-62
2022/02/19 04:13:36;;;;;;;;;;;;;;;21.80;42.58;99107.41;4874390;29;4066;-61
2022/02/19 04:16:09;;;;;;;;;;;;;;;21.63;42.93;99108.66;4882880;29;4218;-62
2022/02/19 04:18:39;;;;;;;;;;;;;;;21.58;43.19;99128.03;4879378;29;4361;-62
2022/02/19 04:21:07;;;;;;;;;;;;;;;21.57;43.17;99120.09;4881227;29;5338;-61
2022/02/19 04:23:35;;;;;;;;;;;;;;;21.57;43.18;99117.94;4882059;29;5482;-62
2022/02/19 04:26:04;;;;;;;;;;;;;;;21.60;43.14;99147.47;4867611;29;4209;-67
2022/02/19 04:28:44;;;;;;;;;;;;;;;21.71;42.99;99135.38;4874958;29;4116;-61
2022/02/19 04:31:17;;;;;;;;;;;;;;;21.79;42.81;99140.56;4881007;29;4270;-61
2022/02/19 04:33:45;;;;;;;;;;;;;;;21.80;42.84;99153.50;4883477;29;4124;-62
2022/02/19 04:36:12;;;;;;;;;;;;;;;21.80;42.80;99147.03;4883956;29;4247;-61
2022/02/19 04:38:38;;;;;;;;;;;;;;;21.80;42.64;99170.06;4866944;29;4269;-61
2022/02/19 04:41:05;;;;;;;;;;;;;;;21.79;42.62;99152.06;4881670;29;5481;-61
2022/02/19 04:43:32;;;;;;;;;;;;;;;21.80;42.64;99170.06;4869259;29;4200;-61
2022/02/19 04:45:58;;;;;;;;;;;;;;;21.81;42.80;99180.19;4878538;29;5364;-61
2022/02/19 04:48:25;;;;;;;;;;;;;;;21.79;42.68;99168.63;4865251;29;4805;-62
2022/02/19 04:50:53;;;;;;;;;;;;;;;21.80;42.74;99205.38;4882110;29;4278;-61
2022/02/19 04:53:20;;;;;;;;;;;;;;;21.81;42.81;99188.84;4865356;29;4312;-62
2022/02/19 04:55:47;;;;;;;;;;;;;;;21.80;42.79;99222.66;4866164;29;4417;-62
2022/02/19 04:58:18;;;;;;;;;;;;;;;21.80;42.87;99230.59;4884772;29;5518;-63
2022/02/19 05:00:45;;;;;;;;;;;;;;;21.80;42.74;99233.47;4881171;29;5475;-62
2022/02/19 05:03:37;;;;;;;;;;;;;;;21.80;42.67;99239.94;4868502;29;5370;-61
2022/02/19 05:06:19;;;;;;;;;;;;;;;21.80;42.80;99247.88;4885333;29;4220;-63
2022/02/19 05:08:50;;;;;;;;;;;;;;;21.79;42.67;99263.72;4881493;29;5262;-61
2022/02/19 05:11:21;;;;;;;;;;;;;;;21.80;42.71;99259.41;4881372;29;4382;-62
2022/02/19 05:13:50;;;;;;;;;;;;;;;21.79;42.83;99273.06;4883503;29;4273;-61
2022/02/19 05:16:17;;;;;;;;;;;;;;;21.80;42.80;99279.56;4881679;29;5845;-62
2022/02/19 05:18:52;;;;;;;;;;;;;;;21.80;42.78;99282.44;4868225;29;5517;-61
2022/02/19 05:21:21;;;;;;;;;;;;;;;21.79;42.84;99301.16;4872828;29;4660;-62
2022/02/19 05:23:51;;;;;;;;;;;;;;;21.79;42.68;99301.16;4881921;29;4412;-61
2022/02/19 05:26:23;;;;;;;;;;;;;;;21.78;42.79;99302.56;4881084;29;4237;-61
2022/02/19 05:28:50;;;;;;;;;;;;;;;21.77;42.86;99310.50;4881589;29;4298;-62
2022/02/19 05:31:17;;;;;;;;;;;;;;;21.76;42.90;99309.03;4882004;29;5538;-62
2022/02/19 05:34:08;;;;;;;;;;;;;;;21.77;43.00;99350.09;4881778;29;4301;-61
2022/02/19 05:36:34;;;;;;;;;;;;;;;21.77;42.82;99350.84;4880563;29;4066;-62
2022/02/19 05:39:02;;;;;;;;;;;;;;;21.79;42.83;99364.56;4886116;29;4120;-61
2022/02/19 05:41:32;;;;;;;;;;;;;;;21.78;42.81;99383.25;4885759;29;4219;-61
2022/02/19 05:44:00;;;;;;;;;;;;;;;21.77;42.83;99382.53;4885758;29;5506;-61
2022/02/19 05:46:27;;;;;;;;;;;;;;;21.79;42.85;99407.78;4871988;29;4247;-61
2022/02/19 05:48:54;;;;;;;;;;;;;;;21.78;42.84;99406.28;4883255;29;4280;-61
2022/02/19 05:51:34;;;;;;;;;;;;;;;21.77;42.92;99396.94;4882402;29;4412;-61
2022/02/19 05:54:05;;;;;;;;;;;;;;;21.77;42.90;99422.13;4870790;29;5227;-61
2022/02/19 05:56:37;;;;;;;;;;;;;;;21.77;42.96;99422.84;4877333;29;5310;-61
2022/02/19 05:59:03;;;;;;;;;;;;;;;21.77;42.97;99422.13;4875206;29;5327;-62
2022/02/19 06:01:31;;;;;;;;;;;;;;;21.77;42.97;99443.03;4883697;29;4210;-61
2022/02/19 06:03:59;;;;;;;;;;;;;;;21.78;42.95;99435.09;4884163;29;4653;-61
2022/02/19 06:06:25;;;;;;;;;;;;;;;21.78;42.94;99437.97;4864877;29;5567;-61
2022/02/19 06:08:53;;;;;;;;;;;;;;;21.78;42.87;99449.50;4882203;29;5119;-61
2022/02/19 06:11:20;;;;;;;;;;;;;;;21.77;43.07;99480.47;4887616;29;4209;-61
2022/02/19 06:14:12;;;;;;;;;;;;;;;21.76;43.01;99493.41;4886410;29;5375;-61
2022/02/19 06:16:46;;;;;;;;;;;;;;;21.76;42.90;99490.53;4868840;29;4277;-61
2022/02/19 06:19:14;;;;;;;;;;;;;;;21.75;42.97;99509.97;4881866;29;5404;-62
2022/02/19 06:21:41;;;;;;;;;;;;;;;21.78;42.89;99501.38;4871220;29;4114;-61
2022/02/19 06:24:07;;;;;;;;;;;;;;;21.79;42.98;99514.38;4885627;29;4107;-62
2022/02/19 06:26:34;;;;;;;;;;;;;;;21.79;42.97;99537.41;4884370;29;4229;-61
2022/02/19 06:29:15;;;;;;;;;;;;;;;21.80;42.86;99530.94;4870628;29;4353;-61
2022/02/19 06:31:47;;;;;;;;;;;;;;;21.80;42.89;99545.34;4886691;29;5461;-61
2022/02/19 06:34:13;;;;;;;;;;;;;;;21.81;42.82;99551.88;4884794;29;4317;-64
2022/02/19 06:36:44;;;;;;;;;;;;;;;21.80;42.87;99559.03;4885811;29;5363;-61
2022/02/19 06:39:14;;;;;;;;;;;;;;;21.79;42.99;99566.97;4884690;29;5488;-62
2022/02/19 06:41:41;;;;;;;;;;;;;;;21.78;43.04;99571.25;4871742;29;4266;-61
2022/02/19 06:44:21;;;;;;;;;;;;;;;21.79;42.76;99586.41;4881923;29;4300;-62
2022/02/19 06:46:49;;;;;;;;;;;;;;;21.78;43.06;99593.56;4884434;29;4305;-61
2022/02/19 06:49:16;;;;;;;;;;;;;;;21.79;42.86;99609.44;4879772;29;5617;-61
2022/02/19 06:51:46;;;;;;;;;;;;;;;21.79;42.87;99600.81;4872089;29;4290;-61
2022/02/19 06:54:12;;;;;;;;;;;;;;;21.81;43.04;99646.97;4883161;29;4404;-61
2022/02/19 06:56:39;;;;;;;;;;;;;;;21.79;42.77;99623.84;4879832;29;4155;-61
2022/02/19 06:59:06;;;;;;;;;;;;;;;21.80;42.99;99633.94;4882845;29;4291;-61
2022/02/19 07:01:33;;;;;;;;;;;;;;;21.80;42.97;99642.59;4880299;29;4203;-61
2022/02/19 07:03:59;;;;;;;;;;;;;;;21.79;42.79;99644.03;4865673;29;4227;-61
2022/02/19 07:06:45;;;;;;;;;;;;;;;21.80;42.91;99654.13;4866471;29;5476;-61
2022/02/19 07:09:11;;;;;;;;;;;;;;;21.80;42.90;99665.66;4883206;29;4297;-61
2022/02/19 07:11:39;;;;;;;;;;;;;;;21.80;42.81;99666.38;4864359;29;4129;-61
2022/02/19 07:14:07;;;;;;;;;;;;;;;21.81;42.81;99681.53;4884876;29;4330;-61
2022/02/19 07:16:34;;;;;;;;;;;;;;;21.81;42.71;99670.00;4879896;29;4401;-61
2022/02/19 07:19:00;;;;;;;;;;;;;;;21.82;42.77;99688.75;4868972;29;4280;-61
2022/02/19 07:21:26;;;;;;;;;;;;;;;21.82;42.73;99682.97;4881541;29;5393;-61
2022/02/19 07:23:53;;;;;;;;;;;;;;;21.81;42.71;99701.72;4880666;29;4304;-61
2022/02/19 07:26:24;;;;;;;;;;;;;;;21.81;42.83;99713.22;4866276;29;4283;-61
2022/02/19 07:28:53;;;;;;;;;;;;;;;21.80;42.95;99711.75;4866023;29;4122;-61
2022/02/19 07:31:22;;;;;;;;;;;;;;;21.80;42.91;99714.63;4869988;29;4414;-61
2022/02/19 07:33:49;;;;;;;;;;;;;;;21.79;42.90;99722.56;4882350;29;4276;-61
2022/02/19 07:36:29;;;;;;;;;;;;;;;21.79;42.93;99728.31;4880748;29;5128;-61
2022/02/19 07:38:57;;;;;;;;;;;;;;;21.80;42.79;99746.34;4880542;29;4105;-61
2022/02/19 07:41:24;;;;;;;;;;;;;;;21.80;42.85;99757.84;4865415;29;4353;-61
2022/02/19 07:44:19;;;;;;;;;;;;;;;21.79;42.83;99779.47;4867465;29;4228;-61
2022/02/19 07:46:58;;;;;;;;;;;;;;;21.69;41.71;99783.56;4864027;29;4337;-62
2022/02/19 07:58:33;;;;;;;;;;;;;;;21.52;41.25;99810.50;4877567;29;4224;-62
2022/02/19 08:01:00;;;;;;;;;;;;;;;21.50;40.80;99813.31;4877106;29;4299;-62
2022/02/19 08:03:35;;;;;;;;;;;;;;;21.47;40.96;99818.31;4879044;29;4243;-62
2022/02/19 08:06:07;;;;;;;;;;;;;;;21.47;40.86;99837.75;4877327;29;4461;-62
2022/02/19 08:08:36;;;;;;;;;;;;;;;21.44;40.62;99821.81;4878561;29;4305;-62
2022/02/19 08:11:09;;;;;;;;;;;;;;;21.43;40.67;99843.38;4864996;29;4261;-62
2022/02/19 08:13:35;;;;;;;;;;;;;;;21.42;40.37;99845.53;4867943;29;4271;-63
2022/02/19 08:16:02;;;;;;;;;;;;;;;21.42;40.77;99865.69;4866189;29;4258;-62
2022/02/19 08:18:29;;;;;;;;;;;;;;;21.40;40.71;99882.16;4862826;29;4274;-62
2022/02/19 08:20:55;;;;;;;;;;;;;;;21.36;40.85;99887.81;4864948;29;4324;-64
2022/02/19 08:23:21;;;;;;;;;;;;;;;21.37;40.62;99895.75;4861974;29;4405;-63
2022/02/19 08:25:53;;;;;;;;;;;;;;;21.40;40.53;99920.34;4863522;29;5533;-63
2022/02/19 08:28:20;;;;;;;;;;;;;;;21.43;40.99;99929.78;4865658;29;4239;-63
2022/02/19 08:30:50;;;;;;;;;;;;;;;21.46;41.04;99942.81;4866048;29;4021;-61
2022/02/19 08:33:20;;;;;;;;;;;;;;;21.44;41.14;99955.03;4878582;29;4195;-62
2022/02/19 08:35:47;;;;;;;;;;;;;;;21.44;41.14;99942.75;4863768;29;4197;-60
2022/02/19 08:38:16;;;;;;;;;;;;;;;21.39;41.16;99932.53;4859337;29;4260;-61
2022/02/19 08:40:44;;;;;;;;;;;;;;;21.44;41.01;99951.41;4860605;29;4026;-62
2022/02/19 08:43:14;;;;;;;;;;;;;;;21.44;41.05;99971.56;4876725;29;4049;-62
2022/02/19 08:45:52;;;;;;;;;;;;;;;21.47;41.15;99973.84;4879700;29;4078;-61
2022/02/19 08:48:22;;;;;;;;;;;;;;;21.47;41.18;99976.72;4881372;29;4377;-61
2022/02/19 08:50:48;;;;;;;;;;;;;;;21.48;41.49;100000.47;4862645;29;4419;-61
2022/02/19 08:53:16;;;;;;;;;;;;;;;21.49;41.51;99996.22;4865163;29;5678;-61
2022/02/19 08:55:42;;;;;;;;;;;;;;;21.49;41.42;99996.94;4866676;29;4274;-61
2022/02/19 08:58:13;;;;;;;;;;;;;;;21.51;41.44;100013.53;4870108;29;4107;-61
2022/02/19 09:00:39;;;;;;;;;;;;;;;21.49;41.62;100010.59;4869910;29;4594;-64
2022/02/19 09:03:06;;;;;;;;;;;;;;;21.47;41.82;100034.31;4870069;29;4136;-63
2022/02/19 09:05:33;;;;;;;;;;;;;;;21.65;41.82;100047.78;4863300;29;4391;-66
2022/02/19 09:07:59;;;;;;;;;;;;;;;21.80;41.79;100064.03;4864635;29;4041;-63
2022/02/19 09:10:26;;;;;;;;;;;;;;;21.85;41.73;100070.66;4870034;29;4253;-64
2022/02/19 09:12:54;;;;;;;;;;;;;;;21.72;41.52;100084.72;4872341;29;4205;-66
2022/02/19 09:15:21;;;;;;;;;;;;;;;21.51;40.77;100074.03;4869701;29;4284;-66
2022/02/19 09:17:48;;;;;;;;;;;;;;;21.55;40.66;100079.91;4873282;29;4276;-66
2022/02/19 09:20:15;;;;;;;;;;;;;;;21.60;40.70;100093.03;4875169;29;4269;-66
2022/02/19 09:22:41;;;;;;;;;;;;;;;21.58;40.94;100095.84;4874327;29;4247;-66
2022/02/19 09:25:08;;;;;;;;;;;;;;;21.60;40.70;100106.69;4871356;29;4386;-64
2022/02/19 09:27:34;;;;;;;;;;;;;;;21.60;40.87;100103.78;4871919;29;4206;-66
2022/02/19 09:30:01;;;;;;;;;;;;;;;21.65;40.69;100094.59;4888536;29;4282;-62
2022/02/19 09:32:27;;;;;;;;;;;;;;;21.70;40.88;100101.94;4872348;29;4138;-63
2022/02/19 09:34:53;;;;;;;;;;;;;;;21.69;40.97;100106.25;4872741;29;4194;-62
2022/02/19 09:37:20;;;;;;;;;;;;;;;21.69;41.09;100112.03;4873980;29;4274;-62
2022/02/19 09:39:46;;;;;;;;;;;;;;;21.71;41.29;100131.50;4873338;29;4284;-61
2022/02/19 09:42:13;;;;;;;;;;;;;;;21.71;41.16;100117.09;4875341;29;4217;-62
2022/02/19 09:44:39;;;;;;;;;;;;;;;21.72;41.15;100124.34;4873471;29;4113;-60
2022/02/19 09:47:06;;;;;;;;;;;;;;;21.73;41.40;100126.53;4871674;29;5475;-59
2022/02/19 09:49:32;;;;;;;;;;;;;;;21.70;41.24;100136.53;4872841;29;4242;-63
2022/02/19 09:51:59;;;;;;;;;;;;;;;21.71;41.12;100149.50;4881886;29;4292;-64
2022/02/19 09:54:25;;;;;;;;;;;;;;;21.74;41.20;100162.59;4868467;29;5412;-64
2022/02/19 09:56:57;;;;;;;;;;;;;;;21.75;41.08;100166.94;4870320;29;4166;-62
2022/02/19 09:59:23;;;;;;;;;;;;;;;21.73;40.83;100181.28;4871772;29;4248;-61
2022/02/19 10:02:03;;;;;;;;;;;;;;;21.70;40.83;100182.63;4873258;29;4307;-64
2022/02/19 10:04:30;;;;;;;;;;;;;;;21.72;40.95;100196.38;4872457;29;4147;-63
2022/02/19 10:06:56;;;;;;;;;;;;;;;21.73;41.13;100186.31;4871426;29;4583;-65
2022/02/19 10:09:24;;;;;;;;;;;;;;;21.67;41.06;100201.28;4872971;29;4395;-64
2022/02/19 10:11:50;;;;;;;;;;;;;;;21.65;40.82;100209.84;4873103;29;4302;-62
2022/02/19 10:14:20;;;;;;;;;;;;;;;21.65;40.53;100215.63;4873133;29;4231;-62
2022/02/19 10:17:01;;;;;;;;;;;;;;;21.68;40.21;100222.91;4868559;29;4277;-62
2022/02/19 10:19:28;;;;;;;;;;;;;;;21.66;40.32;100219.97;4870258;29;4197;-59
2022/02/19 10:22:09;;;;;;;;;;;;;;;21.70;40.28;100225.84;4872170;29;4188;-62
2022/02/19 10:24:36;;;;;;;;;;;;;;;21.87;40.22;100246.50;4871543;29;5405;-62
2022/02/19 10:27:03;;;;;;;;;;;;;;;21.97;40.24;100229.53;4867078;29;4380;-62
2022/02/19 10:29:32;;;;;;;;;;;;;;;22.00;40.16;100242.59;4871738;29;4415;-61
2022/02/19 10:31:58;;;;;;;;;;;;;;;22.04;40.09;100262.91;4882686;29;4033;-66
2022/02/19 10:34:25;;;;;;;;;;;;;;;21.94;40.20;100265.47;4884158;29;4215;-66
2022/02/19 10:36:54;;;;;;;;;;;;;;;21.89;40.42;100266.75;4870964;29;4268;-66
2022/02/19 10:39:27;;;;;;;;;;;;;;;21.83;40.72;100269.44;4872813;29;5581;-65
2022/02/19 10:41:57;;;;;;;;;;;;;;;21.81;40.78;100278.06;4869425;29;4219;-65
2022/02/19 10:44:24;;;;;;;;;;;;;;;21.80;40.81;100283.06;4871762;29;4447;-67
2022/02/19 10:46:52;;;;;;;;;;;;;;;21.82;40.68;100285.28;4868363;29;4228;-66
2022/02/19 10:49:18;;;;;;;;;;;;;;;21.84;40.58;100282.47;4871715;29;5557;-65
2022/02/19 10:51:44;;;;;;;;;;;;;;;21.96;40.48;100294.34;4867560;29;4447;-68
2022/02/19 10:54:11;;;;;;;;;;;;;;;21.96;40.50;100289.31;4871830;29;4213;-68
2022/02/19 10:56:38;;;;;;;;;;;;;;;21.99;40.18;100310.31;4869222;29;4114;-64
2022/02/19 10:59:08;;;;;;;;;;;;;;;22.02;40.06;100305.34;4870716;29;4241;-62
2022/02/19 11:01:41;;;;;;;;;;;;;;;22.06;40.13;100311.97;4867724;29;4595;-63
2022/02/19 11:04:08;;;;;;;;;;;;;;;21.79;40.59;100298.88;4868594;29;4107;-64
2022/02/19 11:06:35;;;;;;;;;;;;;;;21.75;40.42;100299.47;4869106;29;5362;-64
2022/02/19 11:09:02;;;;;;;;;;;;;;;21.72;40.30;100291.47;4863860;29;5368;-64
2022/02/19 11:11:28;;;;;;;;;;;;;;;21.71;40.27;100302.22;4868260;29;4227;-64
2022/02/19 11:13:56;;;;;;;;;;;;;;;21.71;40.41;100299.34;4870273;29;4432;-64
2022/02/19 11:16:23;;;;;;;;;;;;;;;21.71;40.62;100302.22;4870549;29;4248;-64
2022/02/19 11:18:50;;;;;;;;;;;;;;;21.70;40.86;100312.28;4884010;29;4235;-64
2022/02/19 11:21:33;;;;;;;;;;;;;;;21.67;41.16;100299.25;4865790;29;5315;-63
2022/02/19 11:24:00;;;;;;;;;;;;;;;21.69;40.94;100319.47;4867417;29;4402;-64
2022/02/19 11:26:26;;;;;;;;;;;;;;;21.67;41.38;100315.78;4870900;29;4251;-64
2022/02/19 11:28:54;;;;;;;;;;;;;;;21.66;41.25;100322.97;4872060;29;4391;-63
2022/02/19 11:31:21;;;;;;;;;;;;;;;21.69;41.46;100310.06;4870841;29;4236;-66
2022/02/19 11:33:55;;;;;;;;;;;;;;;21.70;42.04;100328.84;4865863;29;4217;-67
2022/02/19 11:36:24;;;;;;;;;;;;;;;21.69;42.17;100331.00;4884057;29;4228;-67
2022/02/19 11:38:53;;;;;;;;;;;;;;;21.68;42.34;100329.50;4867847;29;4624;-66
2022/02/19 11:41:35;;;;;;;;;;;;;;;21.60;41.26;100343.69;4866716;29;4241;-63
2022/02/19 11:44:22;;;;;;;;;;;;;;;21.29;40.24;100333.22;4872479;29;4272;-67
2022/02/19 11:46:49;;;;;;;;;;;;;;;21.28;38.41;100334.63;4862088;29;5290;-67
2022/02/19 11:49:26;;;;;;;;;;;;;;;20.98;36.59;100349.47;4857477;29;4158;-66
2022/02/19 11:52:01;;;;;;;;;;;;;;;21.22;36.54;100343.81;4864180;29;4613;-66
2022/02/19 11:54:47;;;;;;;;;;;;;;;21.39;36.90;100355.88;4861709;29;4397;-66
2022/02/19 11:57:17;;;;;;;;;;;;;;;21.45;39.30;100361.88;4869261;29;4271;-66
2022/02/19 11:59:47;;;;;;;;;;;;;;;21.46;40.61;100358.34;4869256;29;4289;-66
2022/02/19 12:02:15;;;;;;;;;;;;;;;21.48;40.41;100363.41;4869982;29;4301;-66
2022/02/19 12:04:42;;;;;;;;;;;;;;;21.50;40.60;100355.56;4868953;29;4117;-66
2022/02/19 12:07:09;;;;;;;;;;;;;;;21.50;40.60;100367.09;4869616;29;4414;-67
2022/02/19 12:10:11;;;;;;;;;;;;;;;21.51;40.39;100359.94;4868420;29;4325;-66
2022/02/19 12:12:57;;;;;;;;;;;;;;;21.41;39.69;100365.34;4843776;29;4219;-67
2022/02/19 12:15:26;;;;;;;;;;;;;;;21.45;40.13;100379.91;4857149;29;4252;-68
2022/02/19 12:17:53;;;;;;;;;;;;;;;21.51;40.41;100367.84;4854389;29;4202;-70
2022/02/19 12:20:23;;;;;;;;;;;;;;;21.54;40.19;100369.38;4858482;29;4267;-71
2022/02/19 12:22:50;;;;;;;;;;;;;;;21.56;40.67;100380.97;4856071;29;4184;-67
2022/02/19 12:25:16;;;;;;;;;;;;;;;21.54;40.50;100389.56;4857673;29;4315;-69
2022/02/19 12:27:44;;;;;;;;;;;;;;;21.54;40.50;100392.44;4867115;29;5296;-66
2022/02/19 12:30:21;;;;;;;;;;;;;;;21.53;40.34;100388.06;4866733;29;4064;-69
2022/02/19 12:32:49;;;;;;;;;;;;;;;21.52;40.37;100393.09;4861349;29;4218;-66
2022/02/19 12:35:15;;;;;;;;;;;;;;;21.56;40.55;100406.19;4868095;29;5287;-66
2022/02/19 12:37:41;;;;;;;;;;;;;;;21.57;40.57;100410.53;4869966;29;4440;-66
2022/02/19 12:40:08;;;;;;;;;;;;;;;21.57;40.58;100408.38;4869086;29;5357;-66
2022/02/19 12:42:34;;;;;;;;;;;;;;;21.59;40.15;100411.31;4869902;29;4241;-66
2022/02/19 12:45:02;;;;;;;;;;;;;;;21.56;40.47;100415.56;4866592;29;4591;-66
2022/02/19 12:47:29;;;;;;;;;;;;;;;21.61;40.67;100413.56;4863844;29;4203;-66
2022/02/19 12:49:55;;;;;;;;;;;;;;;21.63;41.12;100422.25;4859433;29;4286;-66
2022/02/19 12:52:22;;;;;;;;;;;;;;;21.63;41.11;100431.66;4868760;29;5555;-66
2022/02/19 12:54:48;;;;;;;;;;;;;;;21.62;41.63;100435.91;4869644;29;4051;-69
2022/02/19 12:57:19;;;;;;;;;;;;;;;21.61;41.47;100427.97;4870162;29;4349;-68
2022/02/19 12:59:46;;;;;;;;;;;;;;;21.60;41.96;100443.75;4863668;29;4457;-66
2022/02/19 13:02:12;;;;;;;;;;;;;;;21.59;42.09;100430.75;4867737;29;4315;-66
2022/02/19 13:04:39;;;;;;;;;;;;;;;21.60;42.21;100427.22;4883599;29;4234;-65
2022/02/19 13:07:06;;;;;;;;;;;;;;;21.62;42.27;100435.91;4871190;29;4178;-65
2022/02/19 13:09:33;;;;;;;;;;;;;;;21.62;42.13;100430.16;4868109;29;4325;-65
2022/02/19 13:12:00;;;;;;;;;;;;;;;21.63;42.39;100446.03;4869482;29;5445;-65